sensor_id;sensor_type;location;lat;lon;timestamp;pressure;altitude;pressure_sealevel;temperature;humidity
64544;BME280;50936;51.660;5.616;2023-07-29T00:00:47;100385.47;;;28.48;51.99
64544;BME280;50936;51.660;5.616;2023-07-29T00:03:13;100371.59;;;28.48;51.92
64544;BME280;50936;51.660;5.616;2023-07-29T00:05:40;100370.75;;;28.47;52.06
64544;BME280;50936;51.660;5.616;2023-07-29T00:08:08;100363.72;;;28.45;52.20
64544;BME280;50936;51.660;5.616;2023-07-29T00:10:38;100360.72;;;28.46;52.09
64544;BME280;50936;51.660;5.616;2023-07-29T00:13:05;100359.25;;;28.44;52.07
64544;BME280;50936;51.660;5.616;2023-07-29T00:15:33;100356.25;;;28.45;52.11
64544;BME280;50936;51.660;5.616;2023-07-29T00:18:01;100353.72;;;28.44;52.39
64544;BME280;50936;51.660;5.616;2023-07-29T00:20:28;100347.06;;;28.45;52.10
64544;BME280;50936;51.660;5.616;2023-07-29T00:22:54;100337.06;;;28.44;52.20
64544;BME280;50936;51.660;5.616;2023-07-29T00:25:21;100335.34;;;28.42;52.24
64544;BME280;50936;51.660;5.616;2023-07-29T00:27:49;100332.81;;;28.41;52.44
64544;BME280;50936;51.660;5.616;2023-07-29T00:30:16;100330.88;;;28.41;52.25
64544;BME280;50936;51.660;5.616;2023-07-29T00:32:43;100342.00;;;28.41;52.40
64544;BME280;50936;51.660;5.616;2023-07-29T00:35:12;100345.16;;;28.45;52.32
64544;BME280;50936;51.660;5.616;2023-07-29T00:37:39;100344.53;;;28.43;52.07
64544;BME280;50936;51.660;5.616;2023-07-29T00:40:14;100347.06;;;28.45;52.13
64544;BME280;50936;51.660;5.616;2023-07-29T00:42:47;100344.78;;;28.41;52.24
64544;BME280;50936;51.660;5.616;2023-07-29T00:45:16;100344.78;;;28.41;52.15
64544;BME280;50936;51.660;5.616;2023-07-29T00:47:43;100348.38;;;28.42;51.95
64544;BME280;50936;51.660;5.616;2023-07-29T00:50:12;100350.09;;;28.43;52.40
64544;BME280;50936;51.660;5.616;2023-07-29T00:52:40;100342.00;;;28.41;52.03
64544;BME280;50936;51.660;5.616;2023-07-29T00:55:08;100336.91;;;28.38;52.36
64544;BME280;50936;51.660;5.616;2023-07-29T00:57:35;100337.28;;;28.42;52.36
64544;BME280;50936;51.660;5.616;2023-07-29T01:00:04;100331.97;;;28.40;52.14
64544;BME280;50936;51.660;5.616;2023-07-29T01:02:32;100336.44;;;28.41;52.13
64544;BME280;50936;51.660;5.616;2023-07-29T01:05:00;100330.88;;;28.41;52.08
64544;BME280;50936;51.660;5.616;2023-07-29T01:13:07;100328.72;;;28.44;52.17
64544;BME280;50936;51.660;5.616;2023-07-29T01:15:50;100325.34;;;28.41;52.34
64544;BME280;50936;51.660;5.616;2023-07-29T01:18:28;100318.69;;;28.42;52.30
64544;BME280;50936;51.660;5.616;2023-07-29T01:20:59;100317.47;;;28.38;52.45
64544;BME280;50936;51.660;5.616;2023-07-29T01:23:34;100329.19;;;28.40;52.30
64544;BME280;50936;51.660;5.616;2023-07-29T01:26:02;100329.69;;;28.37;52.01
64544;BME280;50936;51.660;5.616;2023-07-29T01:28:30;100324.13;;;28.37;52.17
64544;BME280;50936;51.660;5.616;2023-07-29T01:31:12;100330.88;;;28.41;52.15
64544;BME280;50936;51.660;5.616;2023-07-29T01:33:48;100330.28;;;28.39;51.98
64544;BME280;50936;51.660;5.616;2023-07-29T01:36:27;100325.56;;;28.40;52.09
64544;BME280;50936;51.660;5.616;2023-07-29T01:38:57;100336.06;;;28.38;52.16
64544;BME280;50936;51.660;5.616;2023-07-29T01:41:26;100324.59;;;28.34;52.23
64544;BME280;50936;51.660;5.616;2023-07-29T01:43:56;100326.25;;;28.35;52.28
64544;BME280;50936;51.660;5.616;2023-07-29T01:46:23;100329.31;;;28.34;51.96
64544;BME280;50936;51.660;5.616;2023-07-29T01:48:50;100327.97;;;28.36;51.91
64544;BME280;50936;51.660;5.616;2023-07-29T01:51:17;100325.66;;;28.33;52.17
64544;BME280;50936;51.660;5.616;2023-07-29T01:53:44;100332.91;;;28.34;51.98
64544;BME280;50936;51.660;5.616;2023-07-29T01:56:11;100331.22;;;28.33;52.34
64544;BME280;50936;51.660;5.616;2023-07-29T01:58:48;100335.69;;;28.34;52.14
64544;BME280;50936;51.660;5.616;2023-07-29T02:01:15;100331.81;;;28.35;52.11
64544;BME280;50936;51.660;5.616;2023-07-29T02:03:42;100337.00;;;28.32;52.15
64544;BME280;50936;51.660;5.616;2023-07-29T02:06:09;100334.84;;;28.34;52.17
64544;BME280;50936;51.660;5.616;2023-07-29T02:08:36;100334.84;;;28.34;52.14
64544;BME280;50936;51.660;5.616;2023-07-29T02:11:03;100336.53;;;28.35;51.92
64544;BME280;50936;51.660;5.616;2023-07-29T02:13:31;100340.41;;;28.34;51.89
64544;BME280;50936;51.660;5.616;2023-07-29T02:15:58;100329.75;;;28.31;51.89
64544;BME280;50936;51.660;5.616;2023-07-29T02:18:25;100330.13;;;28.34;52.05
64544;BME280;50936;51.660;5.616;2023-07-29T02:20:52;100341.25;;;28.34;52.28
64544;BME280;50936;51.660;5.616;2023-07-29T02:23:19;100341.25;;;28.34;52.07
64544;BME280;50936;51.660;5.616;2023-07-29T02:25:46;100336.53;;;28.35;52.09
64544;BME280;50936;51.660;5.616;2023-07-29T02:28:13;100321.19;;;28.32;52.30
64544;BME280;50936;51.660;5.616;2023-07-29T02:30:41;100320.34;;;28.32;52.41
64544;BME280;50936;51.660;5.616;2023-07-29T02:33:10;100314.56;;;28.33;52.08
64544;BME280;50936;51.660;5.616;2023-07-29T02:35:38;100301.75;;;28.32;52.24
64544;BME280;50936;51.660;5.616;2023-07-29T02:38:04;100310.94;;;28.33;51.86
64544;BME280;50936;51.660;5.616;2023-07-29T02:40:31;100321.19;;;28.32;51.99
64544;BME280;50936;51.660;5.616;2023-07-29T02:42:58;100315.66;;;28.32;52.27
64544;BME280;50936;51.660;5.616;2023-07-29T02:45:25;100313.09;;;28.31;52.28
64544;BME280;50936;51.660;5.616;2023-07-29T02:47:52;100323.09;;;28.32;52.10
64544;BME280;50936;51.660;5.616;2023-07-29T02:50:20;100314.78;;;28.32;52.16
64544;BME280;50936;51.660;5.616;2023-07-29T02:52:47;100321.19;;;28.32;52.08
64544;BME280;50936;51.660;5.616;2023-07-29T02:55:17;100315.66;;;28.32;51.79
64544;BME280;50936;51.660;5.616;2023-07-29T02:57:44;100309.22;;;28.32;51.65
64544;BME280;50936;51.660;5.616;2023-07-29T03:00:11;100314.78;;;28.32;51.82
64544;BME280;50936;51.660;5.616;2023-07-29T03:02:39;100310.69;;;28.34;51.92
64544;BME280;50936;51.660;5.616;2023-07-29T03:05:07;100313.94;;;28.31;51.81
64544;BME280;50936;51.660;5.616;2023-07-29T03:07:34;100314.19;;;28.30;52.05
64544;BME280;50936;51.660;5.616;2023-07-29T03:10:01;100304.53;;;28.32;51.64
64544;BME280;50936;51.660;5.616;2023-07-29T03:12:28;100309.22;;;28.32;51.92
64544;BME280;50936;51.660;5.616;2023-07-29T03:14:55;100305.00;;;28.29;51.96
64544;BME280;50936;51.660;5.616;2023-07-29T03:17:22;100310.09;;;28.32;51.60
64544;BME280;50936;51.660;5.616;2023-07-29T03:19:50;100316.72;;;28.31;51.55
64544;BME280;50936;51.660;5.616;2023-07-29T03:22:18;100305.00;;;28.29;51.60
64544;BME280;50936;51.660;5.616;2023-07-29T03:24:45;100316.13;;;28.29;51.57
64544;BME280;50936;51.660;5.616;2023-07-29T03:27:12;100311.03;;;28.26;51.61
64544;BME280;50936;51.660;5.616;2023-07-29T03:29:39;100304.16;;;28.29;51.42
64544;BME280;50936;51.660;5.616;2023-07-29T03:32:06;100301.63;;;28.27;51.34
64544;BME280;50936;51.660;5.616;2023-07-29T03:34:33;100306.34;;;28.27;51.59
64544;BME280;50936;51.660;5.616;2023-07-29T03:37:01;100311.66;;;28.28;51.18
64544;BME280;50936;51.660;5.616;2023-07-29T03:39:27;100312.25;;;28.30;51.18
64544;BME280;50936;51.660;5.616;2023-07-29T03:41:54;100317.44;;;28.27;51.37
64544;BME280;50936;51.660;5.616;2023-07-29T03:44:21;100316.56;;;28.26;51.54
64544;BME280;50936;51.660;5.616;2023-07-29T03:46:48;100319.34;;;28.26;51.15
64544;BME280;50936;51.660;5.616;2023-07-29T03:49:15;100321.06;;;28.27;51.32
64544;BME280;50936;51.660;5.616;2023-07-29T03:51:42;100322.75;;;28.28;51.03
64544;BME280;50936;51.660;5.616;2023-07-29T03:54:09;100322.13;;;28.26;51.26
64544;BME280;50936;51.660;5.616;2023-07-29T03:56:37;100315.13;;;28.23;51.21
64544;BME280;50936;51.660;5.616;2023-07-29T03:59:05;100314.44;;;28.28;51.03
64544;BME280;50936;51.660;5.616;2023-07-29T04:01:33;100314.91;;;28.25;50.88
64544;BME280;50936;51.660;5.616;2023-07-29T04:04:00;100314.06;;;28.25;51.02
64544;BME280;50936;51.660;5.616;2023-07-29T04:06:27;100317.91;;;28.23;50.96
64544;BME280;50936;51.660;5.616;2023-07-29T04:08:55;100302.94;;;28.25;50.76
64544;BME280;50936;51.660;5.616;2023-07-29T04:11:23;100289.06;;;28.25;50.88
64544;BME280;50936;51.660;5.616;2023-07-29T04:13:50;100276.03;;;28.25;50.69
64544;BME280;50936;51.660;5.616;2023-07-29T04:16:17;100270.47;;;28.25;50.66
64544;BME280;50936;51.660;5.616;2023-07-29T04:18:44;100268.78;;;28.24;50.65
64544;BME280;50936;51.660;5.616;2023-07-29T04:21:11;100275.66;;;28.21;50.69
64544;BME280;50936;51.660;5.616;2023-07-29T04:23:39;100275.28;;;28.18;50.65
64544;BME280;50936;51.660;5.616;2023-07-29T04:26:06;100282.50;;;28.19;50.52
64544;BME280;50936;51.660;5.616;2023-07-29T04:28:33;100284.22;;;28.20;50.43
64544;BME280;50936;51.660;5.616;2023-07-29T04:31:00;100284.22;;;28.20;50.41
64544;BME280;50936;51.660;5.616;2023-07-29T04:33:29;100306.44;;;28.20;50.26
64544;BME280;50936;51.660;5.616;2023-07-29T04:35:59;100321.38;;;28.19;50.92
64544;BME280;50936;51.660;5.616;2023-07-29T04:38:32;100334.19;;;28.20;50.58
64544;BME280;50936;51.660;5.616;2023-07-29T04:41:00;100336.13;;;28.19;50.39
64544;BME280;50936;51.660;5.616;2023-07-29T04:43:31;100334.66;;;28.17;50.34
64544;BME280;50936;51.660;5.616;2023-07-29T04:45:58;100329.09;;;28.17;50.59
64544;BME280;50936;51.660;5.616;2023-07-29T04:48:26;100329.09;;;28.17;50.57
64544;BME280;50936;51.660;5.616;2023-07-29T04:50:53;100332.47;;;28.19;50.19
64544;BME280;50936;51.660;5.616;2023-07-29T04:53:20;100330.44;;;28.14;50.05
64544;BME280;50936;51.660;5.616;2023-07-29T04:55:47;100334.66;;;28.17;50.12
64544;BME280;50936;51.660;5.616;2023-07-29T04:58:14;100330.19;;;28.16;50.24
64544;BME280;50936;51.660;5.616;2023-07-29T05:00:42;100338.53;;;28.16;50.20
64544;BME280;50936;51.660;5.616;2023-07-29T05:03:09;100329.09;;;28.17;50.30
64544;BME280;50936;51.660;5.616;2023-07-29T05:05:36;100323.53;;;28.17;50.05
64544;BME280;50936;51.660;5.616;2023-07-29T05:08:03;100329.09;;;28.17;50.19
64544;BME280;50936;51.660;5.616;2023-07-29T05:10:31;100332.38;;;28.14;50.17
64544;BME280;50936;51.660;5.616;2023-07-29T05:12:58;100332.97;;;28.16;50.21
64544;BME280;50936;51.660;5.616;2023-07-29T05:15:24;100335.13;;;28.14;50.27
64544;BME280;50936;51.660;5.616;2023-07-29T05:17:51;100333.19;;;28.14;50.20
64544;BME280;50936;51.660;5.616;2023-07-29T05:20:19;100344.53;;;28.13;50.50
64544;BME280;50936;51.660;5.616;2023-07-29T05:22:46;100341.53;;;28.14;50.41
64544;BME280;50936;51.660;5.616;2023-07-29T05:25:13;100340.69;;;28.14;50.38
64544;BME280;50936;51.660;5.616;2023-07-29T05:27:40;100347.31;;;28.13;50.54
64544;BME280;50936;51.660;5.616;2023-07-29T05:30:07;100354.56;;;28.14;50.13
64544;BME280;50936;51.660;5.616;2023-07-29T05:32:35;100361.56;;;28.16;50.44
64544;BME280;50936;51.660;5.616;2023-07-29T05:35:02;100356.47;;;28.13;50.43
64544;BME280;50936;51.660;5.616;2023-07-29T05:37:30;100360.34;;;28.12;50.22
64544;BME280;50936;51.660;5.616;2023-07-29T05:39:58;100348.41;;;28.12;50.35
64544;BME280;50936;51.660;5.616;2023-07-29T05:42:25;100350.09;;;28.13;50.42
64544;BME280;50936;51.660;5.616;2023-07-29T05:44:52;100352.63;;;28.14;50.26
64544;BME280;50936;51.660;5.616;2023-07-29T05:47:19;100347.31;;;28.13;50.28
64544;BME280;50936;51.660;5.616;2023-07-29T05:49:46;100349.03;;;28.14;50.38
64544;BME280;50936;51.660;5.616;2023-07-29T05:52:13;100351.78;;;28.14;50.16
64544;BME280;50936;51.660;5.616;2023-07-29T05:54:41;100347.53;;;28.11;50.51
64544;BME280;50936;51.660;5.616;2023-07-29T05:57:10;100353.47;;;28.15;50.48
64544;BME280;50936;51.660;5.616;2023-07-29T05:59:38;100343.47;;;28.14;50.36
64544;BME280;50936;51.660;5.616;2023-07-29T06:02:06;100342.38;;;28.15;50.19
64544;BME280;50936;51.660;5.616;2023-07-29T06:04:33;100347.91;;;28.15;50.60
64544;BME280;50936;51.660;5.616;2023-07-29T06:07:00;100351.31;;;28.17;50.40
64544;BME280;50936;51.660;5.616;2023-07-29T06:09:27;100353.00;;;28.18;50.36
64544;BME280;50936;51.660;5.616;2023-07-29T06:11:54;100355.19;;;28.16;50.12
64544;BME280;50936;51.660;5.616;2023-07-29T06:14:21;100353.00;;;28.18;50.40
64544;BME280;50936;51.660;5.616;2023-07-29T06:16:48;100353.25;;;28.16;50.26
64544;BME280;50936;51.660;5.616;2023-07-29T06:19:15;100354.69;;;28.19;50.17
64544;BME280;50936;51.660;5.616;2023-07-29T06:21:42;100349.13;;;28.19;50.40
64544;BME280;50936;51.660;5.616;2023-07-29T06:24:09;100352.56;;;28.21;50.42
64544;BME280;50936;51.660;5.616;2023-07-29T06:26:36;100356.41;;;28.20;50.19
64544;BME280;50936;51.660;5.616;2023-07-29T06:29:04;100356.78;;;28.23;50.26
64544;BME280;50936;51.660;5.616;2023-07-29T06:31:31;100355.44;;;28.26;50.11
64544;BME280;50936;51.660;5.616;2023-07-29T06:33:59;100355.44;;;28.26;49.98
64544;BME280;50936;51.660;5.616;2023-07-29T06:36:26;100353.78;;;28.25;49.80
64544;BME280;50936;51.660;5.616;2023-07-29T06:38:53;100362.72;;;28.27;49.79
64544;BME280;50936;51.660;5.616;2023-07-29T06:41:20;100359.94;;;28.27;49.77
64544;BME280;50936;51.660;5.616;2023-07-29T06:43:49;100361.88;;;28.27;49.69
64544;BME280;50936;51.660;5.616;2023-07-29T06:46:15;100367.81;;;28.30;49.60
64544;BME280;50936;51.660;5.616;2023-07-29T06:48:42;100360.53;;;28.29;49.81
64544;BME280;50936;51.660;5.616;2023-07-29T06:51:09;100371.66;;;28.29;49.51
64544;BME280;50936;51.660;5.616;2023-07-29T06:53:36;100369.47;;;28.31;49.76
64544;BME280;50936;51.660;5.616;2023-07-29T06:56:03;100371.66;;;28.29;49.58
64544;BME280;50936;51.660;5.616;2023-07-29T06:58:31;100364.41;;;28.28;49.75
64544;BME280;50936;51.660;5.616;2023-07-29T07:00:58;100369.25;;;28.33;49.69
64544;BME280;50936;51.660;5.616;2023-07-29T07:03:25;100366.25;;;28.34;49.93
64544;BME280;50936;51.660;5.616;2023-07-29T07:05:52;100367.31;;;28.33;49.76
64544;BME280;50936;51.660;5.616;2023-07-29T07:08:19;100363.09;;;28.31;49.84
64544;BME280;50936;51.660;5.616;2023-07-29T07:10:49;100372.84;;;28.33;49.87
64544;BME280;50936;51.660;5.616;2023-07-29T07:13:16;100357.53;;;28.31;49.58
64544;BME280;50936;51.660;5.616;2023-07-29T07:15:43;100376.13;;;28.30;49.71
64544;BME280;50936;51.660;5.616;2023-07-29T07:18:10;100371.41;;;28.31;49.75
64544;BME280;50936;51.660;5.616;2023-07-29T07:20:37;100376.13;;;28.30;49.60
64544;BME280;50936;51.660;5.616;2023-07-29T07:23:04;100386.13;;;28.31;49.70
64544;BME280;50936;51.660;5.616;2023-07-29T07:25:32;100381.69;;;28.30;49.60
64544;BME280;50936;51.660;5.616;2023-07-29T07:27:59;100376.13;;;28.30;49.79
64544;BME280;50936;51.660;5.616;2023-07-29T07:30:26;100378.03;;;28.30;49.90
64544;BME280;50936;51.660;5.616;2023-07-29T07:32:52;100382.28;;;28.32;49.98
64544;BME280;50936;51.660;5.616;2023-07-29T07:35:19;100380.59;;;28.31;49.75
64544;BME280;50936;51.660;5.616;2023-07-29T07:37:46;100386.13;;;28.31;49.64
64544;BME280;50936;51.660;5.616;2023-07-29T07:40:13;100383.34;;;28.31;49.59
64544;BME280;50936;51.660;5.616;2023-07-29T07:42:40;100380.59;;;28.31;49.83
64544;BME280;50936;51.660;5.616;2023-07-29T07:45:07;100390.00;;;28.30;49.77
64544;BME280;50936;51.660;5.616;2023-07-29T07:47:34;100387.84;;;28.32;49.63
64544;BME280;50936;51.660;5.616;2023-07-29T07:50:01;100393.41;;;28.32;49.90
64544;BME280;50936;51.660;5.616;2023-07-29T07:52:29;100390.00;;;28.30;50.04
64544;BME280;50936;51.660;5.616;2023-07-29T07:54:56;100402.56;;;28.33;49.95
64544;BME280;50936;51.660;5.616;2023-07-29T07:57:23;100408.34;;;28.31;49.89
64544;BME280;50936;51.660;5.616;2023-07-29T07:59:49;100408.34;;;28.31;49.71
64544;BME280;50936;51.660;5.616;2023-07-29T08:02:19;100410.91;;;28.33;49.82
64544;BME280;50936;51.660;5.616;2023-07-29T08:04:47;100405.34;;;28.33;49.89
64544;BME280;50936;51.660;5.616;2023-07-29T08:07:14;100409.56;;;28.35;49.64
64544;BME280;50936;51.660;5.616;2023-07-29T08:09:41;100409.56;;;28.35;49.70
64544;BME280;50936;51.660;5.616;2023-07-29T08:12:08;100410.44;;;28.36;49.76
64544;BME280;50936;51.660;5.616;2023-07-29T08:14:35;100401.88;;;28.37;49.71
64544;BME280;50936;51.660;5.616;2023-07-29T08:17:02;100395.06;;;28.33;49.63
64544;BME280;50936;51.660;5.616;2023-07-29T08:19:30;100394.63;;;28.36;49.56
64544;BME280;50936;51.660;5.616;2023-07-29T08:21:57;100399.34;;;28.36;49.55
64544;BME280;50936;51.660;5.616;2023-07-29T08:24:35;100398.34;;;28.30;49.51
64544;BME280;50936;51.660;5.616;2023-07-29T08:27:02;100397.63;;;28.35;49.47
64544;BME280;50936;51.660;5.616;2023-07-29T08:29:29;100410.81;;;28.39;49.48
64544;BME280;50936;51.660;5.616;2023-07-29T08:31:55;100409.94;;;28.39;49.65
64544;BME280;50936;51.660;5.616;2023-07-29T08:34:22;100400.94;;;28.44;49.57
64544;BME280;50936;51.660;5.616;2023-07-29T08:36:49;100403.69;;;28.44;49.60
64544;BME280;50936;51.660;5.616;2023-07-29T08:39:16;100404.31;;;28.46;49.23
64544;BME280;50936;51.660;5.616;2023-07-29T08:44:42;100408.31;;;28.50;49.02
64544;BME280;50936;51.660;5.616;2023-07-29T08:47:11;100400.19;;;28.48;49.05
64544;BME280;50936;51.660;5.616;2023-07-29T08:49:40;100404.69;;;28.49;49.07
64544;BME280;50936;51.660;5.616;2023-07-29T08:52:09;100412.19;;;28.49;49.16
64544;BME280;50936;51.660;5.616;2023-07-29T08:54:37;100397.44;;;28.48;48.96
64544;BME280;50936;51.660;5.616;2023-07-29T08:57:04;100409.41;;;28.49;49.49
64544;BME280;50936;51.660;5.616;2023-07-29T08:59:32;100409.41;;;28.49;48.88
64544;BME280;50936;51.660;5.616;2023-07-29T09:01:59;100400.84;;;28.50;48.88
64544;BME280;50936;51.660;5.616;2023-07-29T09:04:26;100400.56;;;28.52;48.87
64544;BME280;50936;51.660;5.616;2023-07-29T09:06:56;100403.34;;;28.52;49.08
64544;BME280;50936;51.660;5.616;2023-07-29T09:09:25;100400.56;;;28.52;48.93
64544;BME280;50936;51.660;5.616;2023-07-29T09:11:52;100412.78;;;28.51;49.17
64544;BME280;50936;51.660;5.616;2023-07-29T09:14:20;100402.75;;;28.50;49.20
64544;BME280;50936;51.660;5.616;2023-07-29T09:16:47;100397.81;;;28.52;48.84
64544;BME280;50936;51.660;5.616;2023-07-29T09:19:14;100400.38;;;28.53;48.75
64544;BME280;50936;51.660;5.616;2023-07-29T09:21:42;100390.13;;;28.54;49.08
64544;BME280;50936;51.660;5.616;2023-07-29T09:24:09;100388.81;;;28.56;48.93
64544;BME280;50936;51.660;5.616;2023-07-29T09:26:38;100391.34;;;28.58;49.07
64544;BME280;50936;51.660;5.616;2023-07-29T09:29:05;100381.06;;;28.58;49.08
64544;BME280;50936;51.660;5.616;2023-07-29T09:31:32;100385.78;;;28.58;49.06
64544;BME280;50936;51.660;5.616;2023-07-29T09:34:00;100384.97;;;28.57;49.00
64544;BME280;50936;51.660;5.616;2023-07-29T09:36:31;100381.91;;;28.59;49.04
64544;BME280;50936;51.660;5.616;2023-07-29T09:38:59;100378.06;;;28.60;49.14
64544;BME280;50936;51.660;5.616;2023-07-29T09:41:28;100381.22;;;28.64;48.64
64544;BME280;50936;51.660;5.616;2023-07-29T09:44:02;100378.91;;;28.60;48.83
64544;BME280;50936;51.660;5.616;2023-07-29T09:46:35;100392.09;;;28.65;49.04
64544;BME280;50936;51.660;5.616;2023-07-29T09:49:05;100376.50;;;28.64;48.86
64544;BME280;50936;51.660;5.616;2023-07-29T09:51:37;100376.50;;;28.64;48.64
64544;BME280;50936;51.660;5.616;2023-07-29T09:54:06;100384.84;;;28.64;49.09
64544;BME280;50936;51.660;5.616;2023-07-29T09:56:33;100389.78;;;28.62;48.86
64544;BME280;50936;51.660;5.616;2023-07-29T09:59:06;100389.56;;;28.64;48.79
64544;BME280;50936;51.660;5.616;2023-07-29T10:01:33;100382.28;;;28.63;48.88
64544;BME280;50936;51.660;5.616;2023-07-29T10:04:04;100386.53;;;28.65;48.65
64544;BME280;50936;51.660;5.616;2023-07-29T10:06:34;100382.66;;;28.66;49.03
64544;BME280;50936;51.660;5.616;2023-07-29T10:09:03;100379.88;;;28.66;48.95
64544;BME280;50936;51.660;5.616;2023-07-29T10:11:32;100382.66;;;28.66;48.84
64544;BME280;50936;51.660;5.616;2023-07-29T10:14:00;100384.84;;;28.64;48.79
64544;BME280;50936;51.660;5.616;2023-07-29T10:16:39;100391.59;;;28.68;48.73
64544;BME280;50936;51.660;5.616;2023-07-29T10:19:09;100382.66;;;28.66;48.56
64544;BME280;50936;51.660;5.616;2023-07-29T10:21:38;100385.22;;;28.68;48.88
64544;BME280;50936;51.660;5.616;2023-07-29T10:24:11;100380.50;;;28.68;48.75
64544;BME280;50936;51.660;5.616;2023-07-29T10:26:46;100379.41;;;28.69;48.83
64544;BME280;50936;51.660;5.616;2023-07-29T10:29:19;100383.91;;;28.70;48.88
64544;BME280;50936;51.660;5.616;2023-07-29T10:31:52;100372.78;;;28.70;48.88
64544;BME280;50936;51.660;5.616;2023-07-29T10:34:23;100382.19;;;28.69;48.77
64544;BME280;50936;51.660;5.616;2023-07-29T10:36:51;100377.09;;;28.66;48.58
64544;BME280;50936;51.660;5.616;2023-07-29T10:39:20;100376.66;;;28.69;48.74
64544;BME280;50936;51.660;5.616;2023-07-29T10:47:14;100377.84;;;28.73;49.03
64544;BME280;50936;51.660;5.616;2023-07-29T10:49:43;100362.28;;;28.72;48.33
64544;BME280;50936;51.660;5.616;2023-07-29T10:52:16;100354.56;;;28.74;48.25
64544;BME280;50936;51.660;5.616;2023-07-29T10:54:54;100358.41;;;28.73;48.53
64544;BME280;50936;51.660;5.616;2023-07-29T10:57:38;100370.50;;;28.79;48.41
64544;BME280;50936;51.660;5.616;2023-07-29T11:00:08;100367.34;;;28.75;48.43
64544;BME280;50936;51.660;5.616;2023-07-29T11:02:37;100368.44;;;28.74;48.37
64544;BME280;50936;51.660;5.616;2023-07-29T11:05:17;100375.69;;;28.75;48.56
64544;BME280;50936;51.660;5.616;2023-07-29T11:07:48;100366.03;;;28.78;48.36
64544;BME280;50936;51.660;5.616;2023-07-29T11:10:16;100364.56;;;28.75;48.50
64544;BME280;50936;51.660;5.616;2023-07-29T11:17:48;100359.28;;;28.86;48.21
64544;BME280;50936;51.660;5.616;2023-07-29T11:20:32;100361.09;;;28.80;48.28
64544;BME280;50936;51.660;5.616;2023-07-29T11:23:02;100370.13;;;28.75;48.24
64544;BME280;50936;51.660;5.616;2023-07-29T11:25:30;100379.56;;;28.74;48.64
64544;BME280;50936;51.660;5.616;2023-07-29T11:28:00;100361.19;;;28.73;48.64
64544;BME280;50936;51.660;5.616;2023-07-29T11:30:31;100364.19;;;28.72;48.41
64544;BME280;50936;51.660;5.616;2023-07-29T11:32:58;100370.63;;;28.72;48.54
64544;BME280;50936;51.660;5.616;2023-07-29T11:35:27;100363.13;;;28.73;48.48
64544;BME280;50936;51.660;5.616;2023-07-29T11:37:55;100363.34;;;28.71;48.60
64544;BME280;50936;51.660;5.616;2023-07-29T11:40:25;100366.75;;;28.73;48.55
64544;BME280;50936;51.660;5.616;2023-07-29T11:42:52;100363.34;;;28.71;48.40
64544;BME280;50936;51.660;5.616;2023-07-29T11:45:22;100380.63;;;28.73;48.37
64544;BME280;50936;51.660;5.616;2023-07-29T11:48:01;100374.47;;;28.71;48.12
64544;BME280;50936;51.660;5.616;2023-07-29T11:50:29;100386.69;;;28.70;48.19
64544;BME280;50936;51.660;5.616;2023-07-29T11:52:56;100374.47;;;28.71;48.03
64544;BME280;50936;51.660;5.616;2023-07-29T11:55:24;100385.59;;;28.71;48.23
64544;BME280;50936;51.660;5.616;2023-07-29T11:57:51;100391.75;;;28.73;48.22
64544;BME280;50936;51.660;5.616;2023-07-29T12:00:20;100398.41;;;28.72;48.33
64544;BME280;50936;51.660;5.616;2023-07-29T12:02:49;100389.81;;;28.74;48.09
64544;BME280;50936;51.660;5.616;2023-07-29T12:05:17;100388.97;;;28.73;48.34
64544;BME280;50936;51.660;5.616;2023-07-29T12:07:45;100390.06;;;28.72;48.20
64544;BME280;50936;51.660;5.616;2023-07-29T12:10:13;100384.75;;;28.71;48.47
64544;BME280;50936;51.660;5.616;2023-07-29T12:12:48;100379.56;;;28.74;48.29
64544;BME280;50936;51.660;5.616;2023-07-29T12:15:27;100387.66;;;28.76;48.56
64544;BME280;50936;51.660;5.616;2023-07-29T12:17:56;100393.91;;;28.71;48.40
64544;BME280;50936;51.660;5.616;2023-07-29T12:20:26;100395.03;;;28.70;48.43
64544;BME280;50936;51.660;5.616;2023-07-29T12:22:55;100398.41;;;28.72;48.54
64544;BME280;50936;51.660;5.616;2023-07-29T12:25:27;100403.09;;;28.72;48.55
64544;BME280;50936;51.660;5.616;2023-07-29T12:27:55;100408.28;;;28.68;49.30
64544;BME280;50936;51.660;5.616;2023-07-29T12:30:23;100423.25;;;28.67;49.04
64544;BME280;50936;51.660;5.616;2023-07-29T12:32:51;100430.75;;;28.67;50.03
64544;BME280;50936;51.660;5.616;2023-07-29T12:35:18;100429.06;;;28.66;50.18
64544;BME280;50936;51.660;5.616;2023-07-29T12:37:46;100445.97;;;28.64;50.76
64544;BME280;50936;51.660;5.616;2023-07-29T12:40:23;100453.22;;;28.65;51.46
64544;BME280;50936;51.660;5.616;2023-07-29T12:42:51;100449.47;;;28.59;51.38
64544;BME280;50936;51.660;5.616;2023-07-29T12:45:18;100440.03;;;28.60;51.00
64544;BME280;50936;51.660;5.616;2023-07-29T12:47:45;100441.81;;;28.55;51.22
64544;BME280;50936;51.660;5.616;2023-07-29T12:50:12;100442.25;;;28.52;51.17
64544;BME280;50936;51.660;5.616;2023-07-29T12:52:39;100443.13;;;28.52;51.62
64544;BME280;50936;51.660;5.616;2023-07-29T12:55:06;100435.00;;;28.51;51.44
64544;BME280;50936;51.660;5.616;2023-07-29T12:57:35;100429.47;;;28.51;51.52
64544;BME280;50936;51.660;5.616;2023-07-29T13:00:03;100435.00;;;28.51;51.64
64544;BME280;50936;51.660;5.616;2023-07-29T13:02:31;100423.91;;;28.51;51.19
64544;BME280;50936;51.660;5.616;2023-07-29T13:04:58;100418.34;;;28.51;51.69
64544;BME280;50936;51.660;5.616;2023-07-29T13:07:25;100415.78;;;28.49;51.34
64544;BME280;50936;51.660;5.616;2023-07-29T13:09:52;100417.97;;;28.47;51.42
64544;BME280;50936;51.660;5.616;2023-07-29T13:12:20;100420.50;;;28.49;51.60
64544;BME280;50936;51.660;5.616;2023-07-29T13:14:47;100416.88;;;28.48;51.66